createdAt,value
2022-10-14T00:00:12.362Z,12.30
2022-10-14T00:02:40.156Z,12.30
2022-10-14T00:05:09.872Z,12.30
2022-10-14T00:07:37.909Z,12.30
2022-10-14T00:10:07.152Z,12.30
2022-10-14T00:12:35.556Z,12.30
2022-10-14T00:15:05.591Z,12.30
2022-10-14T00:17:33.364Z,12.30
2022-10-14T00:20:01.509Z,12.30
2022-10-14T00:22:29.274Z,12.30
2022-10-14T00:24:57.229Z,12.30
2022-10-14T00:27:25.172Z,12.30
2022-10-14T00:29:53.116Z,12.20
2022-10-14T00:32:22.226Z,12.20
2022-10-14T00:34:49.995Z,12.20
2022-10-14T00:37:17.766Z,12.20
2022-10-14T00:39:45.547Z,12.20
2022-10-14T00:42:14.973Z,12.20
2022-10-14T00:45:06.845Z,12.20
2022-10-14T00:47:36.018Z,12.20
2022-10-14T00:50:04.663Z,12.20
2022-10-14T00:52:32.548Z,12.20
2022-10-14T00:55:05.650Z,12.20
2022-10-14T00:57:33.922Z,12.20
2022-10-14T01:00:07.465Z,12.20
2022-10-14T01:02:36.763Z,12.20
2022-10-14T01:05:07.220Z,12.20
2022-10-14T01:07:45.582Z,12.20
2022-10-14T01:10:20.885Z,12.20
2022-10-14T01:13:01.236Z,12.20
2022-10-14T01:15:38.039Z,12.20
2022-10-14T01:18:19.115Z,12.20
2022-10-14T01:21:09.605Z,12.10
2022-10-14T01:23:55.470Z,12.10
2022-10-14T01:26:38.336Z,12.10
2022-10-14T01:29:19.757Z,12.10
2022-10-14T01:31:58.176Z,12.20
2022-10-14T01:34:31.924Z,12.20
2022-10-14T01:37:04.105Z,12.10
2022-10-14T01:39:36.956Z,12.20
2022-10-14T01:42:08.930Z,12.10
2022-10-14T01:44:41.936Z,12.20
2022-10-14T01:47:14.690Z,12.20
2022-10-14T01:49:46.503Z,12.10
2022-10-14T01:52:19.990Z,12.10
2022-10-14T01:54:50.999Z,12.20
2022-10-14T01:57:23.350Z,12.20
2022-10-14T01:59:53.071Z,12.20
2022-10-14T02:02:22.725Z,12.20
2022-10-14T02:04:50.796Z,12.20
2022-10-14T02:07:35.473Z,12.10
2022-10-14T02:10:14.635Z,12.10
2022-10-14T02:12:56.819Z,12.20
2022-10-14T02:15:33.329Z,12.20
2022-10-14T02:18:09.228Z,12.20
2022-10-14T02:20:42.348Z,12.20
2022-10-14T02:23:14.376Z,12.10
2022-10-14T02:25:45.772Z,12.20
2022-10-14T02:28:18.255Z,12.20
2022-10-14T02:30:52.034Z,12.20
2022-10-14T02:33:22.851Z,12.20
2022-10-14T02:35:51.668Z,12.20
2022-10-14T02:38:21.500Z,12.20
2022-10-14T02:40:51.664Z,12.20
2022-10-14T02:43:19.577Z,12.20
2022-10-14T02:45:47.323Z,12.20
2022-10-14T02:48:15.162Z,12.20
2022-10-14T02:50:44.705Z,12.20
2022-10-14T02:53:16.953Z,12.20
2022-10-14T02:55:44.752Z,12.20
2022-10-14T02:58:12.526Z,12.20
2022-10-14T03:00:40.447Z,12.20
2022-10-14T03:03:08.800Z,12.20
2022-10-14T03:05:36.614Z,12.20
2022-10-14T03:08:05.971Z,12.20
2022-10-14T03:10:33.736Z,12.20
2022-10-14T03:13:01.533Z,12.20
2022-10-14T03:15:29.366Z,12.20
2022-10-14T03:17:57.118Z,12.20
2022-10-14T03:20:24.936Z,12.20
2022-10-14T03:22:52.711Z,12.20
2022-10-14T03:25:22.219Z,12.20
2022-10-14T03:27:49.991Z,12.20
2022-10-14T03:30:18.030Z,12.30
2022-10-14T03:32:45.794Z,12.20
2022-10-14T03:35:13.717Z,12.20
2022-10-14T03:37:41.476Z,12.20
2022-10-14T03:40:10.373Z,12.20
2022-10-14T03:42:39.464Z,12.20
2022-10-14T03:45:08.336Z,12.20
2022-10-14T03:47:36.159Z,12.20
2022-10-14T03:50:04.968Z,12.20
2022-10-14T03:52:33.545Z,12.20
2022-10-14T03:55:01.409Z,12.20
2022-10-14T03:57:29.152Z,12.20
2022-10-14T03:59:58.253Z,12.20
2022-10-14T04:02:26.025Z,12.20
2022-10-14T04:04:58.388Z,12.30
2022-10-14T04:07:28.449Z,12.30
2022-10-14T04:09:56.278Z,12.30
2022-10-14T04:12:24.343Z,12.30
2022-10-14T04:14:52.326Z,12.30
2022-10-14T04:17:21.413Z,12.30
2022-10-14T04:19:49.168Z,12.30
2022-10-14T04:22:16.992Z,12.30
2022-10-14T04:24:45.621Z,12.30
2022-10-14T04:27:13.411Z,12.30
2022-10-14T04:29:41.441Z,12.30
2022-10-14T04:32:09.260Z,12.30
2022-10-14T04:34:38.426Z,12.30
2022-10-14T04:37:06.288Z,12.30
2022-10-14T04:39:34.163Z,12.30
2022-10-14T04:42:01.995Z,12.30
2022-10-14T04:44:29.786Z,12.30
2022-10-14T04:46:57.581Z,12.30
2022-10-14T04:49:25.629Z,12.30
2022-10-14T04:51:54.708Z,12.30
2022-10-14T04:54:22.504Z,12.30
2022-10-14T04:56:50.268Z,12.30
2022-10-14T04:59:18.047Z,12.30
2022-10-14T05:01:45.835Z,12.30
2022-10-14T05:04:13.767Z,12.30
2022-10-14T05:06:41.629Z,12.30
2022-10-14T05:09:10.762Z,12.30
2022-10-14T05:11:38.589Z,12.30
2022-10-14T05:14:06.409Z,12.20
2022-10-14T05:16:34.393Z,12.30
2022-10-14T05:19:02.140Z,12.20
2022-10-14T05:21:30.016Z,12.30
2022-10-14T05:23:57.758Z,12.30
2022-10-14T05:26:26.927Z,12.30
2022-10-14T05:28:54.778Z,12.30
2022-10-14T05:31:22.626Z,12.30
2022-10-14T05:33:50.349Z,12.30
2022-10-14T05:36:18.120Z,12.30
2022-10-14T05:38:45.873Z,12.30
2022-10-14T05:41:13.634Z,12.30
2022-10-14T05:43:42.731Z,12.30
2022-10-14T05:46:10.490Z,12.30
2022-10-14T05:48:38.289Z,12.30
2022-10-14T05:51:06.419Z,12.30
2022-10-14T05:53:34.342Z,12.30
2022-10-14T05:56:03.213Z,12.30
2022-10-14T05:58:31.016Z,12.30
2022-10-14T06:01:01.908Z,12.30
2022-10-14T06:03:29.958Z,12.30
2022-10-14T06:05:57.928Z,12.30
2022-10-14T06:08:26.474Z,12.30
2022-10-14T06:10:54.385Z,12.30
2022-10-14T06:13:22.949Z,12.30
2022-10-14T06:15:50.722Z,12.30
2022-10-14T06:18:19.801Z,12.30
2022-10-14T06:20:53.088Z,12.30
2022-10-14T06:23:20.903Z,12.30
2022-10-14T06:25:48.681Z,12.30
2022-10-14T06:28:16.565Z,12.30
2022-10-14T06:30:44.417Z,12.40
2022-10-14T06:33:12.158Z,12.40
2022-10-14T06:35:41.238Z,12.40
2022-10-14T06:38:09.140Z,12.40
2022-10-14T06:40:37.303Z,12.40
2022-10-14T06:43:05.325Z,12.40
2022-10-14T06:45:33.641Z,12.50
2022-10-14T06:48:01.379Z,12.40
2022-10-14T06:50:29.143Z,12.50
2022-10-14T06:52:58.266Z,12.50
2022-10-14T06:55:26.040Z,12.50
2022-10-14T06:57:53.798Z,12.50
2022-10-14T07:00:21.799Z,12.50
2022-10-14T07:02:49.553Z,12.50
2022-10-14T07:05:17.452Z,12.50
2022-10-14T07:07:45.336Z,12.50
2022-10-14T07:10:14.415Z,12.50
2022-10-14T07:12:42.200Z,12.50
2022-10-14T07:15:11.046Z,12.50
2022-10-14T07:17:39.460Z,12.50
2022-10-14T07:20:08.324Z,12.50
2022-10-14T07:22:38.928Z,12.50
2022-10-14T07:25:08.192Z,12.50
2022-10-14T07:27:37.298Z,12.60
2022-10-14T07:30:06.658Z,12.60
2022-10-14T07:32:36.820Z,12.60
2022-10-14T07:35:05.035Z,12.60
2022-10-14T07:37:32.956Z,12.60
2022-10-14T07:40:00.715Z,12.60
2022-10-14T07:42:28.604Z,12.60
2022-10-14T07:44:58.148Z,12.60
2022-10-14T07:47:26.013Z,12.60
2022-10-14T07:49:53.879Z,12.60
2022-10-14T07:52:21.671Z,12.60
2022-10-14T07:54:49.463Z,12.60
2022-10-14T07:57:17.604Z,12.70
2022-10-14T07:59:46.165Z,12.60
2022-10-14T08:02:15.490Z,12.70
2022-10-14T08:04:43.286Z,12.70
2022-10-14T08:07:11.053Z,12.70
2022-10-14T08:09:38.842Z,12.70
2022-10-14T08:12:07.064Z,12.70
2022-10-14T08:14:34.950Z,12.80
2022-10-14T08:17:02.770Z,12.80
2022-10-14T08:19:31.922Z,12.80
2022-10-14T08:21:59.670Z,12.80
2022-10-14T08:24:27.517Z,12.90
2022-10-14T08:26:56.961Z,12.90
2022-10-14T08:29:25.545Z,12.90
2022-10-14T08:31:55.189Z,12.90
2022-10-14T08:34:24.358Z,12.90
2022-10-14T08:36:53.500Z,13.00
2022-10-14T08:39:22.166Z,13.00
2022-10-14T08:42:23.183Z,13.00
2022-10-14T08:44:56.413Z,13.00
2022-10-14T08:47:30.272Z,13.10
2022-10-14T08:50:02.497Z,13.10
2022-10-14T08:52:39.554Z,13.10
2022-10-14T08:55:22.960Z,13.20
2022-10-14T08:57:54.957Z,13.20
2022-10-14T09:00:23.499Z,13.20
2022-10-14T09:02:52.811Z,13.30
2022-10-14T09:05:23.420Z,13.30
2022-10-14T09:07:56.011Z,13.30
2022-10-14T09:10:31.087Z,13.40
2022-10-14T09:13:04.306Z,13.40
2022-10-14T09:15:36.304Z,13.40
2022-10-14T09:18:08.962Z,13.40
2022-10-14T09:20:36.836Z,13.40
2022-10-14T09:23:16.763Z,13.40
2022-10-14T09:25:53.449Z,13.40
2022-10-14T09:28:21.407Z,13.50
2022-10-14T09:30:49.302Z,13.50
2022-10-14T09:33:20.845Z,13.50
2022-10-14T09:35:49.616Z,13.50
2022-10-14T09:38:19.546Z,13.50
2022-10-14T09:40:50.322Z,13.50
2022-10-14T09:43:19.637Z,13.50
2022-10-14T09:45:50.874Z,13.60
2022-10-14T09:48:21.857Z,13.60
2022-10-14T09:50:52.605Z,13.70
2022-10-14T09:53:28.324Z,13.80
2022-10-14T09:55:57.879Z,13.80
2022-10-14T09:58:31.198Z,13.90
2022-10-14T10:01:01.552Z,13.90
2022-10-14T10:03:32.606Z,14.00
2022-10-14T10:06:06.508Z,14.00
2022-10-14T10:08:37.074Z,14.10
2022-10-14T10:11:08.214Z,14.10
2022-10-14T10:13:40.347Z,14.20
2022-10-14T10:16:18.147Z,14.20
2022-10-14T10:18:45.991Z,14.30
2022-10-14T10:21:18.408Z,14.20
2022-10-14T10:23:55.318Z,14.30
2022-10-14T10:26:27.068Z,14.40
2022-10-14T10:28:57.935Z,14.40
2022-10-14T10:34:46.496Z,14.40
2022-10-14T10:37:26.069Z,14.40
2022-10-14T10:40:11.358Z,14.40
2022-10-14T10:42:51.416Z,14.40
2022-10-14T10:45:36.762Z,14.50
2022-10-14T10:48:12.761Z,14.50
2022-10-14T10:50:49.094Z,14.50
2022-10-14T10:53:50.728Z,14.50
2022-10-14T10:56:33.466Z,14.60
2022-10-14T10:59:17.203Z,14.60
2022-10-14T11:01:55.715Z,14.60
2022-10-14T11:04:31.153Z,14.60
2022-10-14T11:07:32.720Z,14.60
2022-10-14T11:10:25.880Z,14.60
2022-10-14T11:13:00.750Z,14.60
2022-10-14T11:15:45.563Z,14.60
2022-10-14T11:18:20.512Z,14.60
2022-10-14T11:21:01.498Z,14.60
2022-10-14T11:23:48.738Z,14.60
2022-10-14T11:26:29.000Z,14.60
2022-10-14T11:29:07.640Z,14.60
2022-10-14T11:31:41.543Z,14.60
2022-10-14T11:34:23.762Z,14.70
2022-10-14T11:37:03.953Z,14.60
2022-10-14T11:39:40.850Z,14.60
2022-10-14T11:42:28.305Z,14.60
2022-10-14T11:45:21.260Z,14.60
2022-10-14T11:47:52.526Z,14.60
2022-10-14T11:50:25.450Z,14.70
2022-10-14T11:52:58.120Z,14.60
2022-10-14T11:55:29.837Z,14.60
2022-10-14T11:58:03.489Z,14.60
2022-10-14T12:00:58.488Z,14.60
2022-10-14T12:03:44.046Z,14.60
2022-10-14T12:06:16.620Z,14.60
2022-10-14T12:08:50.226Z,14.60
2022-10-14T12:11:28.296Z,14.60
2022-10-14T12:14:05.769Z,14.60
2022-10-14T12:16:34.987Z,14.60
2022-10-14T12:19:03.142Z,14.60
2022-10-14T12:21:36.452Z,14.70
2022-10-14T12:24:07.234Z,14.70
2022-10-14T12:26:50.613Z,14.70
2022-10-14T12:29:22.326Z,14.70
2022-10-14T12:32:08.126Z,14.60
2022-10-14T12:34:38.778Z,14.60
2022-10-14T12:37:42.940Z,14.60
2022-10-14T12:40:30.597Z,14.60
2022-10-14T12:43:19.970Z,14.60
2022-10-14T12:45:57.585Z,14.60
2022-10-14T12:48:28.783Z,14.60
2022-10-14T12:51:07.090Z,14.60
2022-10-14T12:53:36.193Z,14.60
2022-10-14T12:56:05.947Z,14.60
2022-10-14T12:58:38.301Z,14.60
2022-10-14T13:01:15.331Z,14.60
2022-10-14T13:03:53.430Z,14.60
2022-10-14T13:06:30.462Z,14.60
2022-10-14T13:09:30.758Z,14.60
2022-10-14T13:12:46.659Z,14.50
2022-10-14T13:15:51.078Z,14.50
2022-10-14T13:18:50.310Z,14.50
2022-10-14T13:21:32.141Z,14.50
2022-10-14T13:24:02.636Z,14.50
2022-10-14T13:26:39.262Z,14.50
2022-10-14T13:29:17.807Z,14.50
2022-10-14T13:31:54.198Z,14.50
2022-10-14T13:34:33.593Z,14.50
2022-10-14T13:37:26.459Z,14.50
2022-10-14T13:39:54.732Z,14.50
2022-10-14T13:42:27.112Z,14.50
2022-10-14T13:44:57.367Z,14.50
2022-10-14T13:47:25.386Z,14.50
2022-10-14T13:49:54.706Z,14.50
2022-10-14T13:52:26.745Z,14.50
2022-10-14T13:55:13.510Z,14.50
2022-10-14T13:58:07.829Z,14.50
2022-10-14T14:00:41.432Z,14.50
2022-10-14T14:03:19.057Z,14.50
2022-10-14T14:05:48.544Z,14.50
2022-10-14T14:08:40.561Z,14.50
2022-10-14T14:11:23.094Z,14.50
2022-10-14T14:14:00.638Z,14.50
2022-10-14T14:16:32.878Z,14.50
2022-10-14T14:19:08.854Z,14.50
2022-10-14T14:21:39.310Z,14.50
2022-10-14T14:24:18.085Z,14.50
2022-10-14T14:26:46.238Z,14.50
2022-10-14T14:29:18.836Z,14.50
2022-10-14T14:32:06.787Z,14.50
2022-10-14T14:34:36.737Z,14.60
2022-10-14T14:40:00.062Z,14.60
2022-10-14T14:42:31.571Z,14.60
2022-10-14T14:45:03.866Z,14.60
2022-10-14T14:47:33.064Z,14.70
2022-10-14T14:50:25.396Z,14.70
2022-10-14T14:52:53.198Z,14.60
2022-10-14T14:55:38.931Z,14.70
2022-10-14T14:58:17.563Z,14.60
2022-10-14T15:00:46.554Z,14.60
2022-10-14T15:03:14.871Z,14.60
2022-10-14T15:05:42.694Z,14.60
2022-10-14T15:08:23.462Z,14.60
2022-10-14T15:10:53.880Z,14.60
2022-10-14T15:13:48.516Z,14.60
2022-10-14T15:16:42.041Z,14.60
2022-10-14T15:19:35.583Z,14.50
2022-10-14T15:22:28.775Z,14.50
2022-10-14T15:25:08.382Z,14.50
2022-10-14T15:27:53.572Z,14.50
2022-10-14T15:30:34.518Z,14.50
2022-10-14T15:33:05.563Z,14.50
2022-10-14T15:35:34.282Z,14.50
2022-10-14T15:38:02.099Z,14.50
2022-10-14T15:40:32.825Z,14.50
2022-10-14T15:43:00.596Z,14.50
2022-10-14T15:45:28.624Z,14.50
2022-10-14T15:50:30.678Z,14.50
2022-10-14T15:52:58.514Z,14.50
2022-10-14T15:55:29.643Z,14.50
2022-10-14T15:57:59.409Z,14.50
2022-10-14T16:00:27.275Z,14.50
2022-10-14T16:02:58.390Z,14.50
2022-10-14T16:05:28.880Z,14.50
2022-10-14T16:07:56.761Z,14.60
2022-10-14T16:10:29.208Z,14.50
2022-10-14T16:13:01.072Z,14.50
2022-10-14T16:15:33.867Z,14.50
2022-10-14T16:18:01.799Z,14.50
2022-10-14T16:20:30.734Z,14.50
2022-10-14T16:22:59.367Z,14.50
2022-10-14T16:25:33.484Z,14.50
2022-10-14T16:28:07.607Z,14.50
2022-10-14T16:30:39.969Z,14.50
2022-10-14T16:33:08.399Z,14.50
2022-10-14T16:35:36.223Z,14.50
2022-10-14T16:38:04.004Z,14.50
2022-10-14T16:40:36.551Z,14.50
2022-10-14T16:43:06.698Z,14.50
2022-10-14T16:45:34.543Z,14.50
2022-10-14T16:48:02.415Z,14.40
2022-10-14T16:50:30.295Z,14.40
2022-10-14T16:53:15.810Z,14.40
2022-10-14T16:55:43.614Z,14.40
2022-10-14T16:58:12.845Z,14.40
2022-10-14T17:00:40.619Z,14.40
2022-10-14T17:03:08.525Z,14.40
2022-10-14T17:05:36.777Z,14.40
2022-10-14T17:08:04.591Z,14.40
2022-10-14T17:10:32.344Z,14.40
2022-10-14T17:13:01.934Z,14.40
2022-10-14T17:15:31.065Z,14.40
2022-10-14T17:17:58.998Z,14.40
2022-10-14T17:20:27.303Z,14.30
2022-10-14T17:22:55.119Z,14.30
2022-10-14T17:25:22.906Z,14.30
2022-10-14T17:27:50.955Z,14.30
2022-10-14T17:30:18.888Z,14.30
2022-10-14T17:32:48.100Z,14.30
2022-10-14T17:35:15.893Z,14.30
2022-10-14T17:37:43.725Z,14.30
2022-10-14T17:40:12.083Z,14.30
2022-10-14T17:42:39.893Z,14.30
2022-10-14T17:45:09.070Z,14.20
2022-10-14T17:47:36.836Z,14.20
2022-10-14T17:50:08.818Z,14.20
2022-10-14T17:52:36.771Z,14.20
2022-10-14T17:55:05.101Z,14.20
2022-10-14T17:57:32.920Z,14.20
2022-10-14T18:00:00.692Z,14.10
2022-10-14T18:02:28.532Z,14.10
2022-10-14T18:04:56.254Z,14.10
2022-10-14T18:07:25.494Z,14.10
2022-10-14T18:09:53.506Z,14.10
2022-10-14T18:12:21.235Z,14.10
2022-10-14T18:14:49.739Z,14.10
2022-10-14T18:17:17.496Z,14.00
2022-10-14T18:19:49.743Z,14.00
2022-10-14T18:22:19.811Z,14.00
2022-10-14T18:24:48.865Z,14.00
2022-10-14T18:27:16.619Z,14.00
2022-10-14T18:29:44.320Z,14.00
2022-10-14T18:32:12.047Z,14.00
2022-10-14T18:34:39.738Z,14.00
2022-10-14T18:37:07.473Z,14.00
2022-10-14T18:39:35.197Z,13.90
2022-10-14T18:42:04.484Z,13.90
2022-10-14T18:44:32.174Z,13.90
2022-10-14T18:47:00.231Z,13.90
2022-10-14T18:49:27.947Z,13.90
2022-10-14T18:51:55.647Z,13.90
2022-10-14T18:54:24.767Z,13.90
2022-10-14T18:56:52.597Z,13.90
2022-10-14T18:59:23.814Z,13.90
2022-10-14T19:01:53.246Z,13.90
2022-10-14T19:04:23.476Z,13.90
2022-10-14T19:06:51.195Z,13.90
2022-10-14T19:09:21.395Z,13.90
2022-10-14T19:11:51.665Z,13.90
2022-10-14T19:14:21.573Z,13.90
2022-10-14T19:16:49.685Z,13.90
2022-10-14T19:19:19.514Z,13.90
2022-10-14T19:21:49.949Z,13.90
2022-10-14T19:24:18.292Z,13.90
2022-10-14T19:26:48.003Z,13.90
2022-10-14T19:29:16.497Z,13.90
2022-10-14T19:31:45.934Z,13.90
2022-10-14T19:34:15.410Z,13.90
2022-10-14T19:36:43.799Z,13.90
2022-10-14T19:39:14.450Z,13.90
2022-10-14T19:41:44.639Z,13.90
2022-10-14T19:44:14.075Z,13.90
2022-10-14T19:46:42.316Z,13.90
2022-10-14T19:49:13.570Z,13.90
2022-10-14T19:51:41.474Z,13.90
2022-10-14T19:54:10.535Z,13.90
2022-10-14T19:56:38.254Z,13.90
2022-10-14T19:59:06.031Z,13.90
2022-10-14T20:01:33.922Z,13.90
2022-10-14T20:04:03.179Z,13.90
2022-10-14T20:06:35.433Z,13.90
2022-10-14T20:09:03.723Z,13.90
2022-10-14T20:11:31.551Z,13.90
2022-10-14T20:13:59.272Z,13.90
2022-10-14T20:16:27.745Z,13.90
2022-10-14T20:18:55.853Z,13.90
2022-10-14T20:21:23.639Z,13.90
2022-10-14T20:23:52.775Z,13.90
2022-10-14T20:26:22.236Z,13.90
2022-10-14T20:28:51.158Z,13.90
2022-10-14T20:31:20.792Z,13.90
2022-10-14T20:33:48.675Z,13.80
2022-10-14T20:36:18.123Z,13.80
2022-10-14T20:38:47.118Z,13.80
2022-10-14T20:41:18.012Z,13.90
2022-10-14T20:43:47.238Z,13.80
2022-10-14T20:46:15.672Z,13.80
2022-10-14T20:48:43.723Z,13.80
2022-10-14T20:51:13.400Z,13.80
2022-10-14T20:56:15.908Z,13.90
2022-10-14T20:58:43.685Z,13.90
2022-10-14T21:01:13.683Z,13.90
2022-10-14T21:03:42.478Z,13.90
2022-10-14T21:06:12.983Z,13.90
2022-10-14T21:08:40.949Z,13.90
2022-10-14T21:11:13.981Z,13.80
2022-10-14T21:13:46.774Z,13.80
2022-10-14T21:16:16.855Z,13.80
2022-10-14T21:18:49.127Z,13.90
2022-10-14T21:21:18.648Z,13.80
2022-10-14T21:23:46.580Z,13.80
2022-10-14T21:26:14.319Z,13.80
2022-10-14T21:28:42.064Z,13.80
2022-10-14T21:31:17.357Z,13.90
2022-10-14T21:33:46.905Z,13.90
2022-10-14T21:36:16.548Z,13.90
2022-10-14T21:38:44.650Z,13.90
2022-10-14T21:41:12.844Z,13.90
2022-10-14T21:43:41.435Z,13.90
2022-10-14T21:46:12.835Z,13.80
2022-10-14T21:48:41.505Z,13.90
2022-10-14T21:51:11.363Z,13.80
2022-10-14T21:53:39.955Z,13.80
2022-10-14T21:56:08.124Z,13.90
2022-10-14T21:58:36.458Z,13.80
2022-10-14T22:01:05.823Z,13.80
2022-10-14T22:03:35.716Z,13.90
2022-10-14T22:08:40.972Z,13.80
2022-10-14T22:11:15.667Z,13.80
2022-10-14T22:13:43.463Z,13.80
2022-10-14T22:16:11.304Z,13.80
2022-10-14T22:18:43.345Z,13.90
2022-10-14T22:21:11.711Z,13.80
2022-10-14T22:23:40.293Z,13.80
2022-10-14T22:26:09.648Z,13.80
2022-10-14T22:28:37.513Z,13.80
2022-10-14T22:31:06.417Z,13.80
2022-10-14T22:33:36.077Z,13.80
2022-10-14T22:36:09.651Z,13.80
2022-10-14T22:38:38.567Z,13.80
2022-10-14T22:41:07.786Z,13.80
2022-10-14T22:43:36.726Z,13.80
2022-10-14T22:46:06.138Z,13.80
2022-10-14T22:48:35.254Z,13.80
2022-10-14T22:51:04.099Z,13.80
2022-10-14T22:53:33.667Z,13.80
2022-10-14T22:56:01.554Z,13.70
2022-10-14T22:58:29.851Z,13.70
2022-10-14T23:01:05.625Z,13.70
2022-10-14T23:03:34.479Z,13.70
2022-10-14T23:06:02.998Z,13.70
2022-10-14T23:08:33.092Z,13.70
2022-10-14T23:11:01.353Z,13.70
2022-10-14T23:13:29.733Z,13.70
2022-10-14T23:15:58.172Z,13.70
2022-10-14T23:18:26.641Z,13.70
2022-10-14T23:20:54.846Z,13.70
2022-10-14T23:23:22.789Z,13.70
2022-10-14T23:25:51.817Z,13.70
2022-10-14T23:28:19.625Z,13.60
2022-10-14T23:30:47.412Z,13.60
2022-10-14T23:33:15.100Z,13.60
2022-10-14T23:35:42.886Z,13.60
2022-10-14T23:38:12.279Z,13.70
2022-10-14T23:40:40.018Z,13.70
2022-10-14T23:43:09.071Z,13.60
2022-10-14T23:45:36.788Z,13.60
2022-10-14T23:48:04.701Z,13.60
2022-10-14T23:50:32.397Z,13.60
2022-10-14T23:53:00.112Z,13.60
2022-10-14T23:55:27.819Z,13.60
2022-10-14T23:57:55.730Z,13.60
